sensor_id;sensor_type;location;lat;lon;timestamp;temperature;humidity
10702;DHT22;5402;50.004;8.246;2023-10-19T00:01:25;10.20;99.90
10702;DHT22;5402;50.004;8.246;2023-10-19T00:03:53;10.20;99.90
10702;DHT22;5402;50.004;8.246;2023-10-19T00:06:21;10.20;99.90
10702;DHT22;5402;50.004;8.246;2023-10-19T00:08:48;10.20;99.90
10702;DHT22;5402;50.004;8.246;2023-10-19T00:11:17;10.30;99.90
10702;DHT22;5402;50.004;8.246;2023-10-19T00:13:49;10.30;99.90
10702;DHT22;5402;50.004;8.246;2023-10-19T00:16:16;10.30;99.90
10702;DHT22;5402;50.004;8.246;2023-10-19T00:18:45;10.30;99.90
10702;DHT22;5402;50.004;8.246;2023-10-19T00:21:13;10.30;99.90
10702;DHT22;5402;50.004;8.246;2023-10-19T00:23:46;10.30;99.90
10702;DHT22;5402;50.004;8.246;2023-10-19T00:26:13;10.30;99.90
10702;DHT22;5402;50.004;8.246;2023-10-19T00:28:44;10.40;99.90
10702;DHT22;5402;50.004;8.246;2023-10-19T00:31:11;10.40;99.90
10702;DHT22;5402;50.004;8.246;2023-10-19T00:33:39;10.40;99.90
10702;DHT22;5402;50.004;8.246;2023-10-19T00:36:06;10.20;99.90
10702;DHT22;5402;50.004;8.246;2023-10-19T00:38:34;10.40;99.90
10702;DHT22;5402;50.004;8.246;2023-10-19T00:41:13;10.40;99.90
10702;DHT22;5402;50.004;8.246;2023-10-19T00:43:48;10.40;99.90
10702;DHT22;5402;50.004;8.246;2023-10-19T00:46:17;10.40;99.90
10702;DHT22;5402;50.004;8.246;2023-10-19T00:48:49;10.40;99.90
10702;DHT22;5402;50.004;8.246;2023-10-19T00:51:18;10.40;99.90
10702;DHT22;5402;50.004;8.246;2023-10-19T00:54:09;10.50;99.90
10702;DHT22;5402;50.004;8.246;2023-10-19T00:56:38;10.50;99.90
10702;DHT22;5402;50.004;8.246;2023-10-19T00:59:11;10.50;99.90
10702;DHT22;5402;50.004;8.246;2023-10-19T01:01:40;10.50;99.90
10702;DHT22;5402;50.004;8.246;2023-10-19T01:04:09;10.50;99.90
10702;DHT22;5402;50.004;8.246;2023-10-19T01:06:39;10.50;99.90
10702;DHT22;5402;50.004;8.246;2023-10-19T01:09:09;10.50;99.90
10702;DHT22;5402;50.004;8.246;2023-10-19T01:11:38;10.50;99.90
10702;DHT22;5402;50.004;8.246;2023-10-19T01:14:19;10.60;99.90
10702;DHT22;5402;50.004;8.246;2023-10-19T01:16:47;10.60;99.90
10702;DHT22;5402;50.004;8.246;2023-10-19T01:19:15;10.60;99.90
10702;DHT22;5402;50.004;8.246;2023-10-19T01:21:44;10.60;99.90
10702;DHT22;5402;50.004;8.246;2023-10-19T01:24:17;10.60;99.90
10702;DHT22;5402;50.004;8.246;2023-10-19T01:26:47;10.60;99.90
10702;DHT22;5402;50.004;8.246;2023-10-19T01:29:13;10.60;99.90
10702;DHT22;5402;50.004;8.246;2023-10-19T01:31:40;10.60;99.90
10702;DHT22;5402;50.004;8.246;2023-10-19T01:34:21;10.60;99.90
10702;DHT22;5402;50.004;8.246;2023-10-19T01:36:48;10.70;99.90
10702;DHT22;5402;50.004;8.246;2023-10-19T01:39:17;10.70;99.90
10702;DHT22;5402;50.004;8.246;2023-10-19T01:41:44;10.60;99.90
10702;DHT22;5402;50.004;8.246;2023-10-19T01:44:12;10.60;99.90
10702;DHT22;5402;50.004;8.246;2023-10-19T01:46:39;10.70;99.90
10702;DHT22;5402;50.004;8.246;2023-10-19T01:49:09;10.70;99.90
10702;DHT22;5402;50.004;8.246;2023-10-19T01:51:35;10.70;99.90
10702;DHT22;5402;50.004;8.246;2023-10-19T01:54:04;10.70;99.90
10702;DHT22;5402;50.004;8.246;2023-10-19T01:56:32;10.70;99.90
10702;DHT22;5402;50.004;8.246;2023-10-19T01:59:01;10.80;99.90
10702;DHT22;5402;50.004;8.246;2023-10-19T02:01:28;10.80;99.90
10702;DHT22;5402;50.004;8.246;2023-10-19T02:03:58;10.80;99.90
10702;DHT22;5402;50.004;8.246;2023-10-19T02:06:26;10.70;99.90
10702;DHT22;5402;50.004;8.246;2023-10-19T02:08:56;10.80;99.90
10702;DHT22;5402;50.004;8.246;2023-10-19T02:11:23;10.80;99.90
10702;DHT22;5402;50.004;8.246;2023-10-19T02:13:53;10.80;99.90
10702;DHT22;5402;50.004;8.246;2023-10-19T02:16:20;10.80;99.90
10702;DHT22;5402;50.004;8.246;2023-10-19T02:18:48;10.80;99.90
10702;DHT22;5402;50.004;8.246;2023-10-19T02:21:15;10.80;99.90
10702;DHT22;5402;50.004;8.246;2023-10-19T02:23:47;10.80;99.90
10702;DHT22;5402;50.004;8.246;2023-10-19T02:26:16;10.80;99.90
10702;DHT22;5402;50.004;8.246;2023-10-19T02:28:42;10.90;99.90
10702;DHT22;5402;50.004;8.246;2023-10-19T02:31:11;10.90;99.90
10702;DHT22;5402;50.004;8.246;2023-10-19T02:33:41;10.90;99.90
10702;DHT22;5402;50.004;8.246;2023-10-19T02:36:11;10.90;99.90
10702;DHT22;5402;50.004;8.246;2023-10-19T02:38:39;10.90;99.90
10702;DHT22;5402;50.004;8.246;2023-10-19T02:41:09;10.90;99.90
10702;DHT22;5402;50.004;8.246;2023-10-19T02:43:36;10.80;99.90
10702;DHT22;5402;50.004;8.246;2023-10-19T02:46:03;11.00;99.90
10702;DHT22;5402;50.004;8.246;2023-10-19T02:48:30;11.00;99.90
10702;DHT22;5402;50.004;8.246;2023-10-19T02:50:57;10.90;99.90
10702;DHT22;5402;50.004;8.246;2023-10-19T02:53:34;11.00;99.90
10702;DHT22;5402;50.004;8.246;2023-10-19T02:56:10;11.00;99.90
10702;DHT22;5402;50.004;8.246;2023-10-19T02:58:36;11.10;99.90
10702;DHT22;5402;50.004;8.246;2023-10-19T03:01:12;11.00;99.90
10702;DHT22;5402;50.004;8.246;2023-10-19T03:03:39;11.10;99.90
10702;DHT22;5402;50.004;8.246;2023-10-19T03:06:09;11.10;99.90
10702;DHT22;5402;50.004;8.246;2023-10-19T03:08:35;11.10;99.90
10702;DHT22;5402;50.004;8.246;2023-10-19T03:11:02;11.10;99.90
10702;DHT22;5402;50.004;8.246;2023-10-19T03:13:29;11.10;99.90
10702;DHT22;5402;50.004;8.246;2023-10-19T03:15:57;11.20;99.90
10702;DHT22;5402;50.004;8.246;2023-10-19T03:18:23;11.20;99.90
10702;DHT22;5402;50.004;8.246;2023-10-19T03:20:52;11.00;99.90
10702;DHT22;5402;50.004;8.246;2023-10-19T03:23:19;11.20;99.90
10702;DHT22;5402;50.004;8.246;2023-10-19T03:25:46;11.20;99.90
10702;DHT22;5402;50.004;8.246;2023-10-19T03:28:41;11.20;99.90
10702;DHT22;5402;50.004;8.246;2023-10-19T03:31:08;11.20;99.90
10702;DHT22;5402;50.004;8.246;2023-10-19T03:33:43;11.20;99.90
10702;DHT22;5402;50.004;8.246;2023-10-19T03:36:11;11.20;99.90
10702;DHT22;5402;50.004;8.246;2023-10-19T03:38:39;11.20;99.90
10702;DHT22;5402;50.004;8.246;2023-10-19T03:41:06;11.20;99.90
10702;DHT22;5402;50.004;8.246;2023-10-19T03:43:34;11.30;99.90
10702;DHT22;5402;50.004;8.246;2023-10-19T03:46:02;11.30;99.90
10702;DHT22;5402;50.004;8.246;2023-10-19T03:48:39;11.30;99.90
10702;DHT22;5402;50.004;8.246;2023-10-19T03:51:07;11.30;99.90
10702;DHT22;5402;50.004;8.246;2023-10-19T03:53:38;11.30;99.90
10702;DHT22;5402;50.004;8.246;2023-10-19T03:56:09;11.30;99.90
10702;DHT22;5402;50.004;8.246;2023-10-19T03:58:36;11.30;99.90
10702;DHT22;5402;50.004;8.246;2023-10-19T04:01:04;11.30;99.90
10702;DHT22;5402;50.004;8.246;2023-10-19T04:03:31;11.30;99.90
10702;DHT22;5402;50.004;8.246;2023-10-19T04:05:58;11.30;99.90
10702;DHT22;5402;50.004;8.246;2023-10-19T04:08:27;11.30;99.90
10702;DHT22;5402;50.004;8.246;2023-10-19T04:10:59;11.20;99.90
10702;DHT22;5402;50.004;8.246;2023-10-19T04:13:37;11.30;99.90
10702;DHT22;5402;50.004;8.246;2023-10-19T04:16:04;11.40;99.90
10702;DHT22;5402;50.004;8.246;2023-10-19T04:18:33;11.40;99.90
10702;DHT22;5402;50.004;8.246;2023-10-19T04:21:03;11.40;99.90
10702;DHT22;5402;50.004;8.246;2023-10-19T04:23:30;11.50;99.90
10702;DHT22;5402;50.004;8.246;2023-10-19T04:26:02;11.40;99.90
10702;DHT22;5402;50.004;8.246;2023-10-19T04:28:36;11.40;99.90
10702;DHT22;5402;50.004;8.246;2023-10-19T04:31:07;11.50;99.90
10702;DHT22;5402;50.004;8.246;2023-10-19T04:33:39;11.40;99.90
10702;DHT22;5402;50.004;8.246;2023-10-19T04:36:08;11.40;99.90
10702;DHT22;5402;50.004;8.246;2023-10-19T04:38:36;11.50;99.90
10702;DHT22;5402;50.004;8.246;2023-10-19T04:41:05;11.50;99.90
10702;DHT22;5402;50.004;8.246;2023-10-19T04:43:35;11.50;99.90
10702;DHT22;5402;50.004;8.246;2023-10-19T04:46:09;11.50;99.90
10702;DHT22;5402;50.004;8.246;2023-10-19T04:48:38;11.50;99.90
10702;DHT22;5402;50.004;8.246;2023-10-19T04:51:07;11.60;99.90
10702;DHT22;5402;50.004;8.246;2023-10-19T04:53:34;11.60;99.90
10702;DHT22;5402;50.004;8.246;2023-10-19T04:56:02;11.60;99.90
10702;DHT22;5402;50.004;8.246;2023-10-19T04:58:31;11.60;99.90
10702;DHT22;5402;50.004;8.246;2023-10-19T05:00:59;11.60;99.90
10702;DHT22;5402;50.004;8.246;2023-10-19T05:03:26;11.50;99.90
10702;DHT22;5402;50.004;8.246;2023-10-19T05:05:54;11.60;99.90
10702;DHT22;5402;50.004;8.246;2023-10-19T05:08:22;11.60;99.90
10702;DHT22;5402;50.004;8.246;2023-10-19T05:10:51;11.60;99.90
10702;DHT22;5402;50.004;8.246;2023-10-19T05:13:18;11.60;99.90
10702;DHT22;5402;50.004;8.246;2023-10-19T05:15:46;11.60;99.90
10702;DHT22;5402;50.004;8.246;2023-10-19T05:18:12;11.60;99.90
10702;DHT22;5402;50.004;8.246;2023-10-19T05:20:39;11.60;99.90
10702;DHT22;5402;50.004;8.246;2023-10-19T05:23:06;11.60;99.90
10702;DHT22;5402;50.004;8.246;2023-10-19T05:25:34;11.70;99.90
10702;DHT22;5402;50.004;8.246;2023-10-19T05:28:01;11.70;99.90
10702;DHT22;5402;50.004;8.246;2023-10-19T05:30:28;11.70;99.90
10702;DHT22;5402;50.004;8.246;2023-10-19T05:32:56;11.60;99.90
10702;DHT22;5402;50.004;8.246;2023-10-19T05:35:24;11.70;99.90
10702;DHT22;5402;50.004;8.246;2023-10-19T05:37:51;11.70;99.90
10702;DHT22;5402;50.004;8.246;2023-10-19T05:40:18;11.70;99.90
10702;DHT22;5402;50.004;8.246;2023-10-19T05:42:45;11.70;99.90
10702;DHT22;5402;50.004;8.246;2023-10-19T05:45:12;11.70;99.90
10702;DHT22;5402;50.004;8.246;2023-10-19T05:47:42;11.70;99.90
10702;DHT22;5402;50.004;8.246;2023-10-19T05:50:11;11.70;99.90
10702;DHT22;5402;50.004;8.246;2023-10-19T05:52:40;11.70;99.90
10702;DHT22;5402;50.004;8.246;2023-10-19T05:55:08;11.70;99.90
10702;DHT22;5402;50.004;8.246;2023-10-19T05:57:35;11.70;99.90
10702;DHT22;5402;50.004;8.246;2023-10-19T06:00:06;11.80;99.90
10702;DHT22;5402;50.004;8.246;2023-10-19T06:02:33;11.80;99.90
10702;DHT22;5402;50.004;8.246;2023-10-19T06:05:00;11.80;99.90
10702;DHT22;5402;50.004;8.246;2023-10-19T06:07:29;11.80;99.90
10702;DHT22;5402;50.004;8.246;2023-10-19T06:09:56;11.80;99.90
10702;DHT22;5402;50.004;8.246;2023-10-19T06:12:22;11.80;99.90
10702;DHT22;5402;50.004;8.246;2023-10-19T06:14:49;11.80;99.90
10702;DHT22;5402;50.004;8.246;2023-10-19T06:17:18;11.80;99.90
10702;DHT22;5402;50.004;8.246;2023-10-19T06:19:45;11.80;99.90
10702;DHT22;5402;50.004;8.246;2023-10-19T06:22:12;11.80;99.90
10702;DHT22;5402;50.004;8.246;2023-10-19T06:24:42;11.80;99.90
10702;DHT22;5402;50.004;8.246;2023-10-19T06:27:09;11.90;99.90
10702;DHT22;5402;50.004;8.246;2023-10-19T06:29:35;11.90;99.90
10702;DHT22;5402;50.004;8.246;2023-10-19T06:32:02;11.90;99.90
10702;DHT22;5402;50.004;8.246;2023-10-19T06:34:29;11.90;99.90
10702;DHT22;5402;50.004;8.246;2023-10-19T06:36:57;11.90;99.90
10702;DHT22;5402;50.004;8.246;2023-10-19T06:39:24;11.90;99.90
10702;DHT22;5402;50.004;8.246;2023-10-19T06:41:52;11.90;99.90
10702;DHT22;5402;50.004;8.246;2023-10-19T06:44:19;11.90;99.90
10702;DHT22;5402;50.004;8.246;2023-10-19T06:46:48;12.00;99.90
10702;DHT22;5402;50.004;8.246;2023-10-19T06:49:14;12.00;99.90
10702;DHT22;5402;50.004;8.246;2023-10-19T06:51:43;12.00;99.90
10702;DHT22;5402;50.004;8.246;2023-10-19T06:54:10;11.90;99.90
10702;DHT22;5402;50.004;8.246;2023-10-19T06:56:38;12.00;99.90
10702;DHT22;5402;50.004;8.246;2023-10-19T06:59:08;12.00;99.90
10702;DHT22;5402;50.004;8.246;2023-10-19T07:01:34;12.10;99.90
10702;DHT22;5402;50.004;8.246;2023-10-19T07:04:01;12.10;99.90
10702;DHT22;5402;50.004;8.246;2023-10-19T07:06:28;12.20;99.90
10702;DHT22;5402;50.004;8.246;2023-10-19T07:08:56;12.20;99.90
10702;DHT22;5402;50.004;8.246;2023-10-19T07:11:23;12.20;99.90
10702;DHT22;5402;50.004;8.246;2023-10-19T07:13:50;12.20;99.90
10702;DHT22;5402;50.004;8.246;2023-10-19T07:16:18;12.20;99.90
10702;DHT22;5402;50.004;8.246;2023-10-19T07:18:45;12.30;99.90
10702;DHT22;5402;50.004;8.246;2023-10-19T07:21:12;12.30;99.90
10702;DHT22;5402;50.004;8.246;2023-10-19T07:23:39;12.30;99.90
10702;DHT22;5402;50.004;8.246;2023-10-19T07:26:05;12.30;99.90
10702;DHT22;5402;50.004;8.246;2023-10-19T07:28:32;12.40;99.90
10702;DHT22;5402;50.004;8.246;2023-10-19T07:30:59;12.40;99.90
10702;DHT22;5402;50.004;8.246;2023-10-19T07:33:27;12.40;99.90
10702;DHT22;5402;50.004;8.246;2023-10-19T07:35:54;12.40;99.90
10702;DHT22;5402;50.004;8.246;2023-10-19T07:38:22;12.30;99.90
10702;DHT22;5402;50.004;8.246;2023-10-19T07:40:49;12.40;99.90
10702;DHT22;5402;50.004;8.246;2023-10-19T07:43:18;12.40;99.90
10702;DHT22;5402;50.004;8.246;2023-10-19T07:45:45;12.40;99.90
10702;DHT22;5402;50.004;8.246;2023-10-19T07:48:13;12.40;99.90
10702;DHT22;5402;50.004;8.246;2023-10-19T07:50:41;12.40;99.90
10702;DHT22;5402;50.004;8.246;2023-10-19T07:53:08;12.50;99.90
10702;DHT22;5402;50.004;8.246;2023-10-19T07:55:36;12.50;99.90
10702;DHT22;5402;50.004;8.246;2023-10-19T07:58:04;12.50;99.90
10702;DHT22;5402;50.004;8.246;2023-10-19T08:00:32;12.50;99.90
10702;DHT22;5402;50.004;8.246;2023-10-19T08:02:59;12.50;99.90
10702;DHT22;5402;50.004;8.246;2023-10-19T08:05:26;12.50;99.90
10702;DHT22;5402;50.004;8.246;2023-10-19T08:07:54;12.60;99.90
10702;DHT22;5402;50.004;8.246;2023-10-19T08:10:22;12.60;99.90
10702;DHT22;5402;50.004;8.246;2023-10-19T08:12:50;12.60;99.90
10702;DHT22;5402;50.004;8.246;2023-10-19T08:15:18;12.60;99.90
10702;DHT22;5402;50.004;8.246;2023-10-19T08:17:47;12.60;99.90
10702;DHT22;5402;50.004;8.246;2023-10-19T08:20:15;12.70;99.90
10702;DHT22;5402;50.004;8.246;2023-10-19T08:22:50;12.80;99.90
10702;DHT22;5402;50.004;8.246;2023-10-19T08:25:18;12.80;99.90
10702;DHT22;5402;50.004;8.246;2023-10-19T08:27:46;12.90;99.90
10702;DHT22;5402;50.004;8.246;2023-10-19T08:30:18;13.00;99.90
10702;DHT22;5402;50.004;8.246;2023-10-19T08:32:46;13.00;99.90
10702;DHT22;5402;50.004;8.246;2023-10-19T08:35:14;12.90;99.90
10702;DHT22;5402;50.004;8.246;2023-10-19T08:37:41;12.90;99.90
10702;DHT22;5402;50.004;8.246;2023-10-19T08:40:10;13.00;99.90
10702;DHT22;5402;50.004;8.246;2023-10-19T08:42:41;12.90;99.90
10702;DHT22;5402;50.004;8.246;2023-10-19T08:45:09;13.00;99.90
10702;DHT22;5402;50.004;8.246;2023-10-19T08:47:40;13.00;99.90
10702;DHT22;5402;50.004;8.246;2023-10-19T08:50:08;13.00;99.90
10702;DHT22;5402;50.004;8.246;2023-10-19T08:52:36;13.00;99.90
10702;DHT22;5402;50.004;8.246;2023-10-19T08:55:03;13.00;99.90
10702;DHT22;5402;50.004;8.246;2023-10-19T08:57:30;13.00;99.90
10702;DHT22;5402;50.004;8.246;2023-10-19T08:59:59;13.10;99.90
10702;DHT22;5402;50.004;8.246;2023-10-19T09:02:26;13.10;99.90
10702;DHT22;5402;50.004;8.246;2023-10-19T09:04:53;13.20;99.90
10702;DHT22;5402;50.004;8.246;2023-10-19T09:07:24;13.30;99.90
10702;DHT22;5402;50.004;8.246;2023-10-19T09:09:56;13.20;99.90
10702;DHT22;5402;50.004;8.246;2023-10-19T09:12:22;13.30;99.90
10702;DHT22;5402;50.004;8.246;2023-10-19T09:14:49;13.40;99.90
10702;DHT22;5402;50.004;8.246;2023-10-19T09:17:27;13.50;99.90
10702;DHT22;5402;50.004;8.246;2023-10-19T09:19:55;13.50;99.90
10702;DHT22;5402;50.004;8.246;2023-10-19T09:22:22;13.40;99.90
10702;DHT22;5402;50.004;8.246;2023-10-19T09:24:49;13.30;99.90
10702;DHT22;5402;50.004;8.246;2023-10-19T09:27:17;13.40;99.90
10702;DHT22;5402;50.004;8.246;2023-10-19T09:29:43;13.30;99.90
10702;DHT22;5402;50.004;8.246;2023-10-19T09:32:10;13.30;99.90
10702;DHT22;5402;50.004;8.246;2023-10-19T09:34:40;13.40;99.90
10702;DHT22;5402;50.004;8.246;2023-10-19T09:37:09;13.40;99.90
10702;DHT22;5402;50.004;8.246;2023-10-19T09:39:36;13.50;99.90
10702;DHT22;5402;50.004;8.246;2023-10-19T09:42:06;13.60;99.90
10702;DHT22;5402;50.004;8.246;2023-10-19T09:44:40;13.60;99.90
10702;DHT22;5402;50.004;8.246;2023-10-19T09:47:10;13.70;99.90
10702;DHT22;5402;50.004;8.246;2023-10-19T09:49:40;13.70;99.90
10702;DHT22;5402;50.004;8.246;2023-10-19T09:52:08;13.80;99.90
10702;DHT22;5402;50.004;8.246;2023-10-19T09:54:45;13.80;99.90
10702;DHT22;5402;50.004;8.246;2023-10-19T09:57:18;13.80;99.90
10702;DHT22;5402;50.004;8.246;2023-10-19T09:59:51;13.80;99.90
10702;DHT22;5402;50.004;8.246;2023-10-19T10:02:20;13.80;99.90
10702;DHT22;5402;50.004;8.246;2023-10-19T10:04:48;13.80;99.90
10702;DHT22;5402;50.004;8.246;2023-10-19T10:07:16;13.80;99.90
10702;DHT22;5402;50.004;8.246;2023-10-19T10:09:43;13.70;99.90
10702;DHT22;5402;50.004;8.246;2023-10-19T10:12:21;13.70;99.90
10702;DHT22;5402;50.004;8.246;2023-10-19T10:14:56;13.90;99.90
10702;DHT22;5402;50.004;8.246;2023-10-19T10:17:24;13.80;99.90
10702;DHT22;5402;50.004;8.246;2023-10-19T10:19:55;13.80;99.90
10702;DHT22;5402;50.004;8.246;2023-10-19T10:22:25;13.80;99.90
10702;DHT22;5402;50.004;8.246;2023-10-19T10:24:55;13.90;99.90
10702;DHT22;5402;50.004;8.246;2023-10-19T10:27:22;13.80;99.90
10702;DHT22;5402;50.004;8.246;2023-10-19T10:29:59;13.90;99.90
10702;DHT22;5402;50.004;8.246;2023-10-19T10:32:45;13.90;99.90
10702;DHT22;5402;50.004;8.246;2023-10-19T10:38:14;14.10;99.90
10702;DHT22;5402;50.004;8.246;2023-10-19T10:40:44;14.20;99.90
10702;DHT22;5402;50.004;8.246;2023-10-19T10:43:13;14.30;99.90
10702;DHT22;5402;50.004;8.246;2023-10-19T10:45:39;14.40;99.90
10702;DHT22;5402;50.004;8.246;2023-10-19T10:48:11;14.40;99.90
10702;DHT22;5402;50.004;8.246;2023-10-19T10:50:38;14.40;99.90
10702;DHT22;5402;50.004;8.246;2023-10-19T10:53:07;14.50;99.90
10702;DHT22;5402;50.004;8.246;2023-10-19T10:55:35;14.50;99.90
10702;DHT22;5402;50.004;8.246;2023-10-19T10:58:01;14.60;99.90
10702;DHT22;5402;50.004;8.246;2023-10-19T11:00:27;14.60;99.90
10702;DHT22;5402;50.004;8.246;2023-10-19T11:03:01;14.60;99.90
10702;DHT22;5402;50.004;8.246;2023-10-19T11:05:29;14.60;99.90
10702;DHT22;5402;50.004;8.246;2023-10-19T11:08:06;14.60;99.90
10702;DHT22;5402;50.004;8.246;2023-10-19T11:10:36;14.70;99.90
10702;DHT22;5402;50.004;8.246;2023-10-19T11:13:03;14.70;99.90
10702;DHT22;5402;50.004;8.246;2023-10-19T11:15:32;14.70;99.90
10702;DHT22;5402;50.004;8.246;2023-10-19T11:17:59;14.60;99.90
10702;DHT22;5402;50.004;8.246;2023-10-19T11:20:27;14.70;99.90
10702;DHT22;5402;50.004;8.246;2023-10-19T11:22:54;14.70;99.90
10702;DHT22;5402;50.004;8.246;2023-10-19T11:25:24;14.80;99.90
10702;DHT22;5402;50.004;8.246;2023-10-19T11:27:54;14.70;99.90
10702;DHT22;5402;50.004;8.246;2023-10-19T11:30:25;14.80;99.90
10702;DHT22;5402;50.004;8.246;2023-10-19T11:32:52;14.70;99.90
10702;DHT22;5402;50.004;8.246;2023-10-19T11:35:23;14.70;99.90
10702;DHT22;5402;50.004;8.246;2023-10-19T11:37:51;14.70;99.90
10702;DHT22;5402;50.004;8.246;2023-10-19T11:40:19;14.80;99.90
10702;DHT22;5402;50.004;8.246;2023-10-19T11:42:46;14.80;99.90
10702;DHT22;5402;50.004;8.246;2023-10-19T11:45:16;14.80;99.90
10702;DHT22;5402;50.004;8.246;2023-10-19T11:47:43;14.90;99.90
10702;DHT22;5402;50.004;8.246;2023-10-19T11:50:11;14.90;99.90
10702;DHT22;5402;50.004;8.246;2023-10-19T11:52:41;14.90;99.90
10702;DHT22;5402;50.004;8.246;2023-10-19T11:55:08;15.00;99.90
10702;DHT22;5402;50.004;8.246;2023-10-19T11:57:35;15.00;99.90
10702;DHT22;5402;50.004;8.246;2023-10-19T12:00:02;15.10;99.90
10702;DHT22;5402;50.004;8.246;2023-10-19T12:02:35;15.10;99.90
10702;DHT22;5402;50.004;8.246;2023-10-19T12:05:04;15.10;99.90
10702;DHT22;5402;50.004;8.246;2023-10-19T12:07:35;15.10;99.90
10702;DHT22;5402;50.004;8.246;2023-10-19T12:10:02;15.10;99.90
10702;DHT22;5402;50.004;8.246;2023-10-19T12:12:29;15.10;99.90
10702;DHT22;5402;50.004;8.246;2023-10-19T12:14:57;15.00;99.90
10702;DHT22;5402;50.004;8.246;2023-10-19T12:17:23;15.10;99.90
10702;DHT22;5402;50.004;8.246;2023-10-19T12:19:53;15.10;99.90
10702;DHT22;5402;50.004;8.246;2023-10-19T12:22:21;15.10;99.90
10702;DHT22;5402;50.004;8.246;2023-10-19T12:24:47;15.10;99.90
10702;DHT22;5402;50.004;8.246;2023-10-19T12:27:14;15.20;99.90
10702;DHT22;5402;50.004;8.246;2023-10-19T12:29:41;15.10;99.90
10702;DHT22;5402;50.004;8.246;2023-10-19T12:32:09;15.10;99.90
10702;DHT22;5402;50.004;8.246;2023-10-19T12:34:40;15.20;99.90
10702;DHT22;5402;50.004;8.246;2023-10-19T12:37:08;15.20;99.90
10702;DHT22;5402;50.004;8.246;2023-10-19T12:39:36;15.20;99.90
10702;DHT22;5402;50.004;8.246;2023-10-19T12:42:08;15.20;99.90
10702;DHT22;5402;50.004;8.246;2023-10-19T12:44:35;15.20;99.90
10702;DHT22;5402;50.004;8.246;2023-10-19T12:47:07;15.10;99.90
10702;DHT22;5402;50.004;8.246;2023-10-19T12:49:36;15.20;99.90
10702;DHT22;5402;50.004;8.246;2023-10-19T12:52:03;15.20;99.90
10702;DHT22;5402;50.004;8.246;2023-10-19T12:54:31;15.20;99.90
10702;DHT22;5402;50.004;8.246;2023-10-19T12:56:58;15.20;99.90
10702;DHT22;5402;50.004;8.246;2023-10-19T12:59:24;15.20;99.90
10702;DHT22;5402;50.004;8.246;2023-10-19T13:01:51;15.30;99.90
10702;DHT22;5402;50.004;8.246;2023-10-19T13:04:20;15.30;99.90
10702;DHT22;5402;50.004;8.246;2023-10-19T13:06:49;15.40;99.90
10702;DHT22;5402;50.004;8.246;2023-10-19T13:09:17;15.40;99.90
10702;DHT22;5402;50.004;8.246;2023-10-19T13:11:48;15.50;99.90
10702;DHT22;5402;50.004;8.246;2023-10-19T13:14:17;15.40;99.90
10702;DHT22;5402;50.004;8.246;2023-10-19T13:16:44;15.50;99.90
10702;DHT22;5402;50.004;8.246;2023-10-19T13:19:13;15.50;99.90
10702;DHT22;5402;50.004;8.246;2023-10-19T13:21:41;15.50;99.90
10702;DHT22;5402;50.004;8.246;2023-10-19T13:24:09;15.50;99.90
10702;DHT22;5402;50.004;8.246;2023-10-19T13:26:36;15.50;99.90
10702;DHT22;5402;50.004;8.246;2023-10-19T13:29:05;15.60;99.90
10702;DHT22;5402;50.004;8.246;2023-10-19T13:31:31;15.50;99.90
10702;DHT22;5402;50.004;8.246;2023-10-19T13:34:00;15.60;99.90
10702;DHT22;5402;50.004;8.246;2023-10-19T13:36:28;15.60;99.90
10702;DHT22;5402;50.004;8.246;2023-10-19T13:38:55;15.70;99.90
10702;DHT22;5402;50.004;8.246;2023-10-19T13:41:22;15.80;99.90
10702;DHT22;5402;50.004;8.246;2023-10-19T13:43:48;15.80;99.90
10702;DHT22;5402;50.004;8.246;2023-10-19T13:46:16;15.80;99.90
10702;DHT22;5402;50.004;8.246;2023-10-19T13:48:43;15.80;99.90
10702;DHT22;5402;50.004;8.246;2023-10-19T13:51:15;15.90;99.90
10702;DHT22;5402;50.004;8.246;2023-10-19T13:53:42;15.90;99.90
10702;DHT22;5402;50.004;8.246;2023-10-19T13:56:10;15.90;99.90
10702;DHT22;5402;50.004;8.246;2023-10-19T13:58:37;15.90;99.90
10702;DHT22;5402;50.004;8.246;2023-10-19T14:01:06;15.80;99.90
10702;DHT22;5402;50.004;8.246;2023-10-19T14:03:35;15.80;99.90
10702;DHT22;5402;50.004;8.246;2023-10-19T14:06:03;15.70;99.90
10702;DHT22;5402;50.004;8.246;2023-10-19T14:08:29;15.80;99.90
10702;DHT22;5402;50.004;8.246;2023-10-19T14:11:01;15.80;99.90
10702;DHT22;5402;50.004;8.246;2023-10-19T14:13:28;15.80;99.90
10702;DHT22;5402;50.004;8.246;2023-10-19T14:15:55;15.80;99.90
10702;DHT22;5402;50.004;8.246;2023-10-19T14:18:21;15.80;99.90
10702;DHT22;5402;50.004;8.246;2023-10-19T14:20:49;15.80;99.90
10702;DHT22;5402;50.004;8.246;2023-10-19T14:23:16;15.80;99.90
10702;DHT22;5402;50.004;8.246;2023-10-19T14:25:43;15.80;99.90
10702;DHT22;5402;50.004;8.246;2023-10-19T14:28:10;15.80;99.90
10702;DHT22;5402;50.004;8.246;2023-10-19T14:30:37;15.80;99.90
10702;DHT22;5402;50.004;8.246;2023-10-19T14:33:04;15.90;99.90
10702;DHT22;5402;50.004;8.246;2023-10-19T14:35:36;15.90;99.90
10702;DHT22;5402;50.004;8.246;2023-10-19T14:38:06;15.90;99.90
10702;DHT22;5402;50.004;8.246;2023-10-19T14:40:34;15.80;99.90
10702;DHT22;5402;50.004;8.246;2023-10-19T14:43:01;15.90;99.90
10702;DHT22;5402;50.004;8.246;2023-10-19T14:45:29;15.80;99.90
10702;DHT22;5402;50.004;8.246;2023-10-19T14:47:56;15.80;99.90
10702;DHT22;5402;50.004;8.246;2023-10-19T14:50:25;15.80;99.90
10702;DHT22;5402;50.004;8.246;2023-10-19T14:52:53;15.80;99.90
10702;DHT22;5402;50.004;8.246;2023-10-19T14:55:22;15.80;99.90
10702;DHT22;5402;50.004;8.246;2023-10-19T14:57:50;15.80;99.90
10702;DHT22;5402;50.004;8.246;2023-10-19T15:00:19;15.80;99.90
10702;DHT22;5402;50.004;8.246;2023-10-19T15:02:49;15.80;99.90
10702;DHT22;5402;50.004;8.246;2023-10-19T15:05:17;15.80;99.90
10702;DHT22;5402;50.004;8.246;2023-10-19T15:07:47;15.80;99.90
10702;DHT22;5402;50.004;8.246;2023-10-19T15:10:18;15.90;99.90
10702;DHT22;5402;50.004;8.246;2023-10-19T15:12:46;15.90;99.90
10702;DHT22;5402;50.004;8.246;2023-10-19T15:15:14;16.00;99.90
10702;DHT22;5402;50.004;8.246;2023-10-19T15:17:42;15.80;99.90
10702;DHT22;5402;50.004;8.246;2023-10-19T15:20:10;16.40;99.90
10702;DHT22;5402;50.004;8.246;2023-10-19T15:22:37;15.90;99.90
10702;DHT22;5402;50.004;8.246;2023-10-19T15:25:04;15.90;99.90
10702;DHT22;5402;50.004;8.246;2023-10-19T15:27:33;15.90;99.90
10702;DHT22;5402;50.004;8.246;2023-10-19T15:30:01;15.90;99.90
10702;DHT22;5402;50.004;8.246;2023-10-19T15:32:28;15.90;99.90
10702;DHT22;5402;50.004;8.246;2023-10-19T15:34:56;15.90;99.90
10702;DHT22;5402;50.004;8.246;2023-10-19T15:37:24;15.80;99.90
10702;DHT22;5402;50.004;8.246;2023-10-19T15:39:51;15.80;99.90
10702;DHT22;5402;50.004;8.246;2023-10-19T15:42:18;15.80;99.90
10702;DHT22;5402;50.004;8.246;2023-10-19T15:44:47;15.80;99.90
10702;DHT22;5402;50.004;8.246;2023-10-19T15:47:15;15.80;99.90
10702;DHT22;5402;50.004;8.246;2023-10-19T15:49:46;15.80;99.90
10702;DHT22;5402;50.004;8.246;2023-10-19T15:52:14;15.80;99.90
10702;DHT22;5402;50.004;8.246;2023-10-19T15:54:44;15.80;99.90
10702;DHT22;5402;50.004;8.246;2023-10-19T15:57:10;15.80;99.90